sensor_id;sensor_type;location;lat;lon;timestamp;P1;durP1;ratioP1;P2;durP2;ratioP2
74644;SDS011;63163;55.630;37.594;2022-09-09T00:00:18;1.5;;;1.0;;
74644;SDS011;63163;55.630;37.594;2022-09-09T00:01:23;2.9;;;1.0;;
74644;SDS011;63163;55.630;37.594;2022-09-09T00:02:28;1.9;;;1.0;;
74644;SDS011;63163;55.630;37.594;2022-09-09T00:03:30;2.1;;;0.9;;
74644;SDS011;63163;55.630;37.594;2022-09-09T00:04:35;1.3;;;0.9;;
74644;SDS011;63163;55.630;37.594;2022-09-09T00:05:38;2.7;;;0.8;;
74644;SDS011;63163;55.630;37.594;2022-09-09T00:06:43;1.0;;;0.7;;
74644;SDS011;63163;55.630;37.594;2022-09-09T00:07:46;3.0;;;1.0;;
74644;SDS011;63163;55.630;37.594;2022-09-09T00:08:51;1.5;;;1.0;;
74644;SDS011;63163;55.630;37.594;2022-09-09T00:09:57;3.2;;;1.1;;
74644;SDS011;63163;55.630;37.594;2022-09-09T00:11:01;1.4;;;0.9;;
74644;SDS011;63163;55.630;37.594;2022-09-09T00:12:06;1.5;;;0.8;;
74644;SDS011;63163;55.630;37.594;2022-09-09T00:13:13;1.6;;;0.8;;
74644;SDS011;63163;55.630;37.594;2022-09-09T00:14:18;2.3;;;1.0;;
74644;SDS011;63163;55.630;37.594;2022-09-09T00:15:23;2.1;;;0.8;;
74644;SDS011;63163;55.630;37.594;2022-09-09T00:16:27;1.3;;;0.9;;
74644;SDS011;63163;55.630;37.594;2022-09-09T00:17:31;2.9;;;1.0;;
74644;SDS011;63163;55.630;37.594;2022-09-09T00:18:36;2.9;;;1.3;;
74644;SDS011;63163;55.630;37.594;2022-09-09T00:19:40;1.8;;;0.9;;
74644;SDS011;63163;55.630;37.594;2022-09-09T00:20:43;2.6;;;0.9;;
74644;SDS011;63163;55.630;37.594;2022-09-09T00:21:47;2.0;;;0.9;;
74644;SDS011;63163;55.630;37.594;2022-09-09T00:22:51;2.2;;;1.0;;
74644;SDS011;63163;55.630;37.594;2022-09-09T00:23:54;3.2;;;0.9;;
74644;SDS011;63163;55.630;37.594;2022-09-09T00:24:55;1.9;;;0.9;;
74644;SDS011;63163;55.630;37.594;2022-09-09T00:25:59;1.7;;;1.0;;
74644;SDS011;63163;55.630;37.594;2022-09-09T00:27:04;1.6;;;1.0;;
74644;SDS011;63163;55.630;37.594;2022-09-09T00:28:08;2.8;;;0.9;;
74644;SDS011;63163;55.630;37.594;2022-09-09T00:29:15;1.5;;;1.0;;
74644;SDS011;63163;55.630;37.594;2022-09-09T00:30:19;4.0;;;1.0;;
74644;SDS011;63163;55.630;37.594;2022-09-09T00:31:20;2.6;;;1.0;;
74644;SDS011;63163;55.630;37.594;2022-09-09T00:32:24;2.9;;;1.0;;
74644;SDS011;63163;55.630;37.594;2022-09-09T00:33:27;2.1;;;1.0;;
74644;SDS011;63163;55.630;37.594;2022-09-09T00:34:30;2.3;;;1.0;;
74644;SDS011;63163;55.630;37.594;2022-09-09T00:35:32;2.0;;;1.0;;
74644;SDS011;63163;55.630;37.594;2022-09-09T00:36:34;1.6;;;0.9;;
74644;SDS011;63163;55.630;37.594;2022-09-09T00:37:36;3.4;;;1.0;;
74644;SDS011;63163;55.630;37.594;2022-09-09T00:38:38;1.8;;;1.0;;
74644;SDS011;63163;55.630;37.594;2022-09-09T00:39:41;1.6;;;0.8;;
74644;SDS011;63163;55.630;37.594;2022-09-09T00:40:45;2.9;;;1.2;;
74644;SDS011;63163;55.630;37.594;2022-09-09T00:41:50;1.9;;;1.2;;
74644;SDS011;63163;55.630;37.594;2022-09-09T00:43:00;2.7;;;1.1;;
74644;SDS011;63163;55.630;37.594;2022-09-09T00:44:03;4.1;;;1.1;;
74644;SDS011;63163;55.630;37.594;2022-09-09T00:45:10;1.9;;;1.0;;
74644;SDS011;63163;55.630;37.594;2022-09-09T00:46:20;1.8;;;1.0;;
74644;SDS011;63163;55.630;37.594;2022-09-09T00:47:29;3.3;;;1.0;;
74644;SDS011;63163;55.630;37.594;2022-09-09T00:48:35;2.7;;;1.2;;
74644;SDS011;63163;55.630;37.594;2022-09-09T00:49:42;1.7;;;1.2;;
74644;SDS011;63163;55.630;37.594;2022-09-09T00:50:47;1.8;;;0.9;;
74644;SDS011;63163;55.630;37.594;2022-09-09T00:51:51;2.8;;;1.2;;
74644;SDS011;63163;55.630;37.594;2022-09-09T00:52:57;1.3;;;1.1;;
74644;SDS011;63163;55.630;37.594;2022-09-09T00:54:05;3.0;;;1.2;;
74644;SDS011;63163;55.630;37.594;2022-09-09T00:55:12;2.9;;;1.3;;
74644;SDS011;63163;55.630;37.594;2022-09-09T00:56:16;4.1;;;1.1;;
74644;SDS011;63163;55.630;37.594;2022-09-09T00:57:23;1.7;;;0.8;;
74644;SDS011;63163;55.630;37.594;2022-09-09T00:58:25;1.9;;;1.1;;
74644;SDS011;63163;55.630;37.594;2022-09-09T00:59:28;1.6;;;1.1;;
74644;SDS011;63163;55.630;37.594;2022-09-09T01:00:32;2.5;;;1.1;;
74644;SDS011;63163;55.630;37.594;2022-09-09T01:01:33;5.3;;;1.1;;
74644;SDS011;63163;55.630;37.594;2022-09-09T01:02:38;1.9;;;1.0;;
74644;SDS011;63163;55.630;37.594;2022-09-09T01:03:42;1.4;;;1.1;;
74644;SDS011;63163;55.630;37.594;2022-09-09T01:04:45;2.2;;;0.9;;
74644;SDS011;63163;55.630;37.594;2022-09-09T01:05:48;1.5;;;0.9;;
74644;SDS011;63163;55.630;37.594;2022-09-09T01:06:52;2.1;;;1.1;;
74644;SDS011;63163;55.630;37.594;2022-09-09T01:07:54;2.8;;;1.0;;
74644;SDS011;63163;55.630;37.594;2022-09-09T01:09:00;2.5;;;1.0;;
74644;SDS011;63163;55.630;37.594;2022-09-09T01:10:03;4.1;;;1.4;;
74644;SDS011;63163;55.630;37.594;2022-09-09T01:11:06;2.3;;;1.0;;
74644;SDS011;63163;55.630;37.594;2022-09-09T01:12:12;2.3;;;1.0;;
74644;SDS011;63163;55.630;37.594;2022-09-09T01:13:16;1.8;;;1.1;;
74644;SDS011;63163;55.630;37.594;2022-09-09T01:14:24;2.4;;;1.2;;
74644;SDS011;63163;55.630;37.594;2022-09-09T01:15:29;4.1;;;1.3;;
74644;SDS011;63163;55.630;37.594;2022-09-09T01:16:31;3.9;;;1.2;;
74644;SDS011;63163;55.630;37.594;2022-09-09T01:17:33;2.1;;;1.0;;
74644;SDS011;63163;55.630;37.594;2022-09-09T01:18:37;4.4;;;1.2;;
74644;SDS011;63163;55.630;37.594;2022-09-09T01:19:44;1.5;;;0.9;;
74644;SDS011;63163;55.630;37.594;2022-09-09T01:20:47;4.5;;;1.0;;
74644;SDS011;63163;55.630;37.594;2022-09-09T01:21:54;2.3;;;1.0;;
74644;SDS011;63163;55.630;37.594;2022-09-09T01:22:59;4.0;;;1.1;;
74644;SDS011;63163;55.630;37.594;2022-09-09T01:24:12;2.9;;;1.2;;
74644;SDS011;63163;55.630;37.594;2022-09-09T01:25:19;2.1;;;0.9;;
74644;SDS011;63163;55.630;37.594;2022-09-09T01:26:22;2.1;;;1.1;;
74644;SDS011;63163;55.630;37.594;2022-09-09T01:27:24;3.4;;;1.2;;
74644;SDS011;63163;55.630;37.594;2022-09-09T01:28:26;4.2;;;1.1;;
74644;SDS011;63163;55.630;37.594;2022-09-09T01:29:27;2.4;;;1.2;;
74644;SDS011;63163;55.630;37.594;2022-09-09T01:30:27;1.5;;;1.1;;
74644;SDS011;63163;55.630;37.594;2022-09-09T01:31:28;3.8;;;1.0;;
74644;SDS011;63163;55.630;37.594;2022-09-09T01:32:39;2.4;;;1.2;;
74644;SDS011;63163;55.630;37.594;2022-09-09T01:33:40;2.9;;;1.1;;
74644;SDS011;63163;55.630;37.594;2022-09-09T01:34:41;1.7;;;1.1;;
74644;SDS011;63163;55.630;37.594;2022-09-09T01:35:42;1.6;;;1.0;;
74644;SDS011;63163;55.630;37.594;2022-09-09T01:36:46;2.7;;;1.4;;
74644;SDS011;63163;55.630;37.594;2022-09-09T01:37:48;2.4;;;1.0;;
74644;SDS011;63163;55.630;37.594;2022-09-09T01:38:48;1.8;;;1.1;;
74644;SDS011;63163;55.630;37.594;2022-09-09T01:39:49;3.0;;;1.4;;
74644;SDS011;63163;55.630;37.594;2022-09-09T01:40:49;3.9;;;1.2;;
74644;SDS011;63163;55.630;37.594;2022-09-09T01:41:52;2.6;;;1.2;;
74644;SDS011;63163;55.630;37.594;2022-09-09T01:42:53;3.2;;;1.0;;
74644;SDS011;63163;55.630;37.594;2022-09-09T01:43:54;2.6;;;1.3;;
74644;SDS011;63163;55.630;37.594;2022-09-09T01:44:55;2.9;;;1.2;;
74644;SDS011;63163;55.630;37.594;2022-09-09T01:45:56;2.4;;;1.2;;
74644;SDS011;63163;55.630;37.594;2022-09-09T01:46:59;2.0;;;1.4;;
74644;SDS011;63163;55.630;37.594;2022-09-09T01:47:59;2.2;;;1.1;;
74644;SDS011;63163;55.630;37.594;2022-09-09T01:49:00;3.1;;;1.3;;
74644;SDS011;63163;55.630;37.594;2022-09-09T01:50:02;3.4;;;1.2;;
74644;SDS011;63163;55.630;37.594;2022-09-09T01:51:03;3.0;;;1.4;;
74644;SDS011;63163;55.630;37.594;2022-09-09T01:52:04;3.6;;;1.4;;
74644;SDS011;63163;55.630;37.594;2022-09-09T01:53:04;3.6;;;1.4;;
74644;SDS011;63163;55.630;37.594;2022-09-09T01:54:05;2.4;;;1.4;;
74644;SDS011;63163;55.630;37.594;2022-09-09T01:55:07;2.8;;;1.3;;
74644;SDS011;63163;55.630;37.594;2022-09-09T01:56:10;2.5;;;1.3;;
74644;SDS011;63163;55.630;37.594;2022-09-09T01:57:15;2.6;;;1.3;;
74644;SDS011;63163;55.630;37.594;2022-09-09T01:58:19;3.8;;;1.5;;
74644;SDS011;63163;55.630;37.594;2022-09-09T01:59:24;2.6;;;1.4;;
74644;SDS011;63163;55.630;37.594;2022-09-09T02:00:26;1.9;;;1.1;;
74644;SDS011;63163;55.630;37.594;2022-09-09T02:01:31;3.4;;;1.6;;
74644;SDS011;63163;55.630;37.594;2022-09-09T02:02:38;4.1;;;1.4;;
74644;SDS011;63163;55.630;37.594;2022-09-09T02:03:41;2.1;;;1.3;;
74644;SDS011;63163;55.630;37.594;2022-09-09T02:04:45;1.8;;;1.2;;
74644;SDS011;63163;55.630;37.594;2022-09-09T02:05:49;3.0;;;1.2;;
74644;SDS011;63163;55.630;37.594;2022-09-09T02:06:52;3.4;;;1.5;;
74644;SDS011;63163;55.630;37.594;2022-09-09T02:07:55;4.4;;;1.4;;
74644;SDS011;63163;55.630;37.594;2022-09-09T02:08:59;2.1;;;1.1;;
74644;SDS011;63163;55.630;37.594;2022-09-09T02:10:01;2.5;;;1.3;;
74644;SDS011;63163;55.630;37.594;2022-09-09T02:11:04;2.4;;;1.3;;
74644;SDS011;63163;55.630;37.594;2022-09-09T02:12:07;3.0;;;1.3;;
74644;SDS011;63163;55.630;37.594;2022-09-09T02:13:09;2.4;;;1.4;;
74644;SDS011;63163;55.630;37.594;2022-09-09T02:14:13;3.0;;;1.4;;
74644;SDS011;63163;55.630;37.594;2022-09-09T02:15:17;3.6;;;1.5;;
74644;SDS011;63163;55.630;37.594;2022-09-09T02:16:21;2.7;;;1.5;;
74644;SDS011;63163;55.630;37.594;2022-09-09T02:17:25;2.3;;;1.4;;
74644;SDS011;63163;55.630;37.594;2022-09-09T02:18:29;2.6;;;1.5;;
74644;SDS011;63163;55.630;37.594;2022-09-09T02:19:32;2.5;;;1.6;;
74644;SDS011;63163;55.630;37.594;2022-09-09T02:20:34;3.9;;;1.5;;
74644;SDS011;63163;55.630;37.594;2022-09-09T02:21:35;2.1;;;1.3;;
74644;SDS011;63163;55.630;37.594;2022-09-09T02:22:37;4.0;;;1.5;;
74644;SDS011;63163;55.630;37.594;2022-09-09T02:23:39;3.4;;;1.5;;
74644;SDS011;63163;55.630;37.594;2022-09-09T02:24:42;4.3;;;1.9;;
74644;SDS011;63163;55.630;37.594;2022-09-09T02:25:42;2.7;;;1.4;;
74644;SDS011;63163;55.630;37.594;2022-09-09T02:26:44;3.5;;;1.6;;
74644;SDS011;63163;55.630;37.594;2022-09-09T02:27:46;3.1;;;1.7;;
74644;SDS011;63163;55.630;37.594;2022-09-09T02:28:48;3.1;;;1.7;;
74644;SDS011;63163;55.630;37.594;2022-09-09T02:29:49;3.0;;;1.5;;
74644;SDS011;63163;55.630;37.594;2022-09-09T02:30:51;4.4;;;1.7;;
74644;SDS011;63163;55.630;37.594;2022-09-09T02:31:55;3.4;;;1.5;;
74644;SDS011;63163;55.630;37.594;2022-09-09T02:32:57;4.5;;;1.7;;
74644;SDS011;63163;55.630;37.594;2022-09-09T02:33:59;4.9;;;1.7;;
74644;SDS011;63163;55.630;37.594;2022-09-09T02:35:02;2.7;;;1.5;;
74644;SDS011;63163;55.630;37.594;2022-09-09T02:36:04;3.5;;;1.9;;
74644;SDS011;63163;55.630;37.594;2022-09-09T02:37:07;4.7;;;1.5;;
74644;SDS011;63163;55.630;37.594;2022-09-09T02:38:09;3.3;;;1.7;;
74644;SDS011;63163;55.630;37.594;2022-09-09T02:39:10;3.0;;;1.3;;
74644;SDS011;63163;55.630;37.594;2022-09-09T02:40:11;3.9;;;1.6;;
74644;SDS011;63163;55.630;37.594;2022-09-09T02:41:13;3.7;;;1.9;;
74644;SDS011;63163;55.630;37.594;2022-09-09T02:42:14;7.0;;;1.8;;
74644;SDS011;63163;55.630;37.594;2022-09-09T02:43:15;2.8;;;1.5;;
74644;SDS011;63163;55.630;37.594;2022-09-09T02:44:17;7.3;;;1.7;;
74644;SDS011;63163;55.630;37.594;2022-09-09T02:45:18;3.4;;;1.6;;
74644;SDS011;63163;55.630;37.594;2022-09-09T02:46:24;4.2;;;2.1;;
74644;SDS011;63163;55.630;37.594;2022-09-09T02:47:30;4.1;;;2.2;;
74644;SDS011;63163;55.630;37.594;2022-09-09T02:48:33;6.4;;;1.8;;
74644;SDS011;63163;55.630;37.594;2022-09-09T02:49:38;3.8;;;1.8;;
74644;SDS011;63163;55.630;37.594;2022-09-09T02:50:42;3.7;;;1.9;;
74644;SDS011;63163;55.630;37.594;2022-09-09T02:51:49;3.5;;;2.0;;
74644;SDS011;63163;55.630;37.594;2022-09-09T02:52:55;6.4;;;2.2;;
74644;SDS011;63163;55.630;37.594;2022-09-09T02:54:01;4.7;;;2.0;;
74644;SDS011;63163;55.630;37.594;2022-09-09T02:55:07;3.4;;;1.8;;
74644;SDS011;63163;55.630;37.594;2022-09-09T02:56:12;4.4;;;2.1;;
74644;SDS011;63163;55.630;37.594;2022-09-09T02:57:16;3.4;;;1.7;;
74644;SDS011;63163;55.630;37.594;2022-09-09T02:58:17;3.1;;;1.6;;
74644;SDS011;63163;55.630;37.594;2022-09-09T02:59:18;3.5;;;1.8;;
74644;SDS011;63163;55.630;37.594;2022-09-09T03:00:22;4.9;;;2.1;;
74644;SDS011;63163;55.630;37.594;2022-09-09T03:01:24;4.4;;;1.9;;
74644;SDS011;63163;55.630;37.594;2022-09-09T03:02:25;4.1;;;2.0;;
74644;SDS011;63163;55.630;37.594;2022-09-09T03:03:25;3.7;;;2.0;;
74644;SDS011;63163;55.630;37.594;2022-09-09T03:04:26;3.8;;;1.9;;
74644;SDS011;63163;55.630;37.594;2022-09-09T03:05:26;4.3;;;1.9;;
74644;SDS011;63163;55.630;37.594;2022-09-09T03:06:28;4.0;;;1.8;;
74644;SDS011;63163;55.630;37.594;2022-09-09T03:07:28;4.1;;;1.7;;
74644;SDS011;63163;55.630;37.594;2022-09-09T03:08:29;7.4;;;2.4;;
74644;SDS011;63163;55.630;37.594;2022-09-09T03:09:29;4.2;;;2.1;;
74644;SDS011;63163;55.630;37.594;2022-09-09T03:10:30;3.5;;;1.9;;
74644;SDS011;63163;55.630;37.594;2022-09-09T03:11:31;4.9;;;2.1;;
74644;SDS011;63163;55.630;37.594;2022-09-09T03:12:31;3.3;;;2.0;;
74644;SDS011;63163;55.630;37.594;2022-09-09T03:13:33;4.2;;;2.0;;
74644;SDS011;63163;55.630;37.594;2022-09-09T03:14:34;5.6;;;2.3;;
74644;SDS011;63163;55.630;37.594;2022-09-09T03:15:35;3.3;;;1.7;;
74644;SDS011;63163;55.630;37.594;2022-09-09T03:16:35;3.7;;;1.8;;
74644;SDS011;63163;55.630;37.594;2022-09-09T03:17:36;5.3;;;2.1;;
74644;SDS011;63163;55.630;37.594;2022-09-09T03:18:36;4.0;;;1.8;;
74644;SDS011;63163;55.630;37.594;2022-09-09T03:19:37;4.3;;;1.9;;
74644;SDS011;63163;55.630;37.594;2022-09-09T03:20:38;4.5;;;1.9;;
74644;SDS011;63163;55.630;37.594;2022-09-09T03:21:38;3.0;;;1.7;;
74644;SDS011;63163;55.630;37.594;2022-09-09T03:22:39;4.8;;;2.1;;
74644;SDS011;63163;55.630;37.594;2022-09-09T03:23:40;5.3;;;1.9;;
74644;SDS011;63163;55.630;37.594;2022-09-09T03:24:40;5.1;;;2.1;;
74644;SDS011;63163;55.630;37.594;2022-09-09T03:25:46;4.1;;;2.0;;
74644;SDS011;63163;55.630;37.594;2022-09-09T03:26:46;5.6;;;2.2;;
74644;SDS011;63163;55.630;37.594;2022-09-09T03:27:47;4.0;;;2.2;;
74644;SDS011;63163;55.630;37.594;2022-09-09T03:28:47;4.0;;;2.1;;
74644;SDS011;63163;55.630;37.594;2022-09-09T03:29:51;6.3;;;2.0;;
74644;SDS011;63163;55.630;37.594;2022-09-09T03:30:52;5.4;;;2.5;;
74644;SDS011;63163;55.630;37.594;2022-09-09T03:31:57;5.9;;;2.3;;
74644;SDS011;63163;55.630;37.594;2022-09-09T03:32:58;4.6;;;2.0;;
74644;SDS011;63163;55.630;37.594;2022-09-09T03:33:58;5.3;;;2.2;;
74644;SDS011;63163;55.630;37.594;2022-09-09T03:34:59;4.6;;;2.0;;
74644;SDS011;63163;55.630;37.594;2022-09-09T03:36:00;3.4;;;2.1;;
74644;SDS011;63163;55.630;37.594;2022-09-09T03:37:00;4.1;;;2.1;;
74644;SDS011;63163;55.630;37.594;2022-09-09T03:38:01;5.1;;;2.0;;
74644;SDS011;63163;55.630;37.594;2022-09-09T03:39:02;4.8;;;2.0;;
74644;SDS011;63163;55.630;37.594;2022-09-09T03:40:03;4.7;;;2.1;;
74644;SDS011;63163;55.630;37.594;2022-09-09T03:41:04;4.7;;;1.9;;
74644;SDS011;63163;55.630;37.594;2022-09-09T03:42:07;3.9;;;2.0;;
74644;SDS011;63163;55.630;37.594;2022-09-09T03:43:08;4.9;;;2.0;;
74644;SDS011;63163;55.630;37.594;2022-09-09T03:44:10;3.7;;;2.2;;
74644;SDS011;63163;55.630;37.594;2022-09-09T03:45:10;6.1;;;2.4;;
74644;SDS011;63163;55.630;37.594;2022-09-09T03:46:11;6.4;;;2.8;;
74644;SDS011;63163;55.630;37.594;2022-09-09T03:47:11;9.8;;;3.3;;
74644;SDS011;63163;55.630;37.594;2022-09-09T03:48:12;5.7;;;2.3;;
74644;SDS011;63163;55.630;37.594;2022-09-09T03:49:13;5.4;;;2.4;;
74644;SDS011;63163;55.630;37.594;2022-09-09T03:50:14;5.1;;;2.9;;
74644;SDS011;63163;55.630;37.594;2022-09-09T03:51:15;4.0;;;2.2;;
74644;SDS011;63163;55.630;37.594;2022-09-09T03:52:16;4.5;;;2.3;;
74644;SDS011;63163;55.630;37.594;2022-09-09T03:53:17;4.8;;;2.2;;
74644;SDS011;63163;55.630;37.594;2022-09-09T03:54:19;4.8;;;2.2;;
74644;SDS011;63163;55.630;37.594;2022-09-09T03:55:19;5.3;;;2.3;;
74644;SDS011;63163;55.630;37.594;2022-09-09T03:56:20;4.8;;;2.2;;
74644;SDS011;63163;55.630;37.594;2022-09-09T03:57:22;3.8;;;2.1;;
74644;SDS011;63163;55.630;37.594;2022-09-09T03:58:22;7.3;;;2.5;;
74644;SDS011;63163;55.630;37.594;2022-09-09T03:59:24;4.4;;;2.2;;
74644;SDS011;63163;55.630;37.594;2022-09-09T04:00:25;5.1;;;2.3;;
74644;SDS011;63163;55.630;37.594;2022-09-09T04:01:26;26.4;;;4.4;;
74644;SDS011;63163;55.630;37.594;2022-09-09T04:02:27;5.3;;;2.2;;
74644;SDS011;63163;55.630;37.594;2022-09-09T04:03:28;6.6;;;2.3;;
74644;SDS011;63163;55.630;37.594;2022-09-09T04:04:29;9.4;;;2.9;;
74644;SDS011;63163;55.630;37.594;2022-09-09T04:05:30;4.5;;;2.3;;
74644;SDS011;63163;55.630;37.594;2022-09-09T04:06:30;5.7;;;2.4;;
74644;SDS011;63163;55.630;37.594;2022-09-09T04:07:31;4.8;;;2.3;;
74644;SDS011;63163;55.630;37.594;2022-09-09T04:08:33;5.2;;;2.4;;
74644;SDS011;63163;55.630;37.594;2022-09-09T04:09:33;7.3;;;2.7;;
74644;SDS011;63163;55.630;37.594;2022-09-09T04:10:35;3.4;;;2.3;;
74644;SDS011;63163;55.630;37.594;2022-09-09T04:11:37;4.6;;;2.3;;
74644;SDS011;63163;55.630;37.594;2022-09-09T04:12:37;4.9;;;2.4;;
74644;SDS011;63163;55.630;37.594;2022-09-09T04:13:38;4.9;;;2.3;;
74644;SDS011;63163;55.630;37.594;2022-09-09T04:14:39;4.8;;;2.4;;
74644;SDS011;63163;55.630;37.594;2022-09-09T04:15:39;4.6;;;2.3;;
74644;SDS011;63163;55.630;37.594;2022-09-09T04:16:40;5.1;;;2.4;;
74644;SDS011;63163;55.630;37.594;2022-09-09T04:17:43;4.7;;;2.4;;
74644;SDS011;63163;55.630;37.594;2022-09-09T04:18:43;7.2;;;2.9;;
74644;SDS011;63163;55.630;37.594;2022-09-09T04:19:44;5.5;;;2.7;;
74644;SDS011;63163;55.630;37.594;2022-09-09T04:20:45;5.3;;;2.5;;
74644;SDS011;63163;55.630;37.594;2022-09-09T04:21:46;6.1;;;2.3;;
74644;SDS011;63163;55.630;37.594;2022-09-09T04:22:46;5.3;;;2.7;;
74644;SDS011;63163;55.630;37.594;2022-09-09T04:23:47;3.5;;;2.2;;
74644;SDS011;63163;55.630;37.594;2022-09-09T04:24:47;5.4;;;2.4;;
74644;SDS011;63163;55.630;37.594;2022-09-09T04:25:48;5.6;;;2.4;;
74644;SDS011;63163;55.630;37.594;2022-09-09T04:26:49;4.4;;;2.3;;
74644;SDS011;63163;55.630;37.594;2022-09-09T04:27:52;4.4;;;2.3;;
74644;SDS011;63163;55.630;37.594;2022-09-09T04:28:54;4.7;;;2.4;;
74644;SDS011;63163;55.630;37.594;2022-09-09T04:29:55;4.3;;;2.2;;
74644;SDS011;63163;55.630;37.594;2022-09-09T04:30:57;3.6;;;2.2;;
74644;SDS011;63163;55.630;37.594;2022-09-09T04:31:57;7.5;;;2.9;;
74644;SDS011;63163;55.630;37.594;2022-09-09T04:32:58;5.0;;;2.4;;
74644;SDS011;63163;55.630;37.594;2022-09-09T04:33:58;5.5;;;2.3;;
74644;SDS011;63163;55.630;37.594;2022-09-09T04:35:02;4.5;;;2.0;;
74644;SDS011;63163;55.630;37.594;2022-09-09T04:36:03;5.3;;;2.5;;
74644;SDS011;63163;55.630;37.594;2022-09-09T04:37:03;3.3;;;2.1;;
74644;SDS011;63163;55.630;37.594;2022-09-09T04:38:04;5.3;;;2.2;;
74644;SDS011;63163;55.630;37.594;2022-09-09T04:39:07;5.9;;;2.0;;
74644;SDS011;63163;55.630;37.594;2022-09-09T04:40:08;4.8;;;2.2;;
74644;SDS011;63163;55.630;37.594;2022-09-09T04:41:09;4.3;;;2.1;;
74644;SDS011;63163;55.630;37.594;2022-09-09T04:42:11;4.6;;;2.2;;
74644;SDS011;63163;55.630;37.594;2022-09-09T04:43:11;4.1;;;2.1;;
74644;SDS011;63163;55.630;37.594;2022-09-09T04:44:12;3.3;;;2.0;;
74644;SDS011;63163;55.630;37.594;2022-09-09T04:45:13;5.0;;;1.8;;
74644;SDS011;63163;55.630;37.594;2022-09-09T04:46:13;5.3;;;2.0;;
74644;SDS011;63163;55.630;37.594;2022-09-09T04:47:14;6.4;;;2.0;;
74644;SDS011;63163;55.630;37.594;2022-09-09T04:48:15;2.9;;;2.0;;
74644;SDS011;63163;55.630;37.594;2022-09-09T04:49:15;4.9;;;2.0;;
74644;SDS011;63163;55.630;37.594;2022-09-09T04:50:16;4.6;;;2.2;;
74644;SDS011;63163;55.630;37.594;2022-09-09T04:51:17;3.3;;;1.9;;
74644;SDS011;63163;55.630;37.594;2022-09-09T04:52:17;5.3;;;2.2;;
74644;SDS011;63163;55.630;37.594;2022-09-09T04:53:18;5.8;;;1.9;;
74644;SDS011;63163;55.630;37.594;2022-09-09T04:54:18;3.8;;;1.9;;
74644;SDS011;63163;55.630;37.594;2022-09-09T04:55:19;4.7;;;1.7;;
74644;SDS011;63163;55.630;37.594;2022-09-09T04:56:20;5.2;;;1.9;;
74644;SDS011;63163;55.630;37.594;2022-09-09T04:57:21;3.9;;;1.8;;
74644;SDS011;63163;55.630;37.594;2022-09-09T04:58:21;4.0;;;1.8;;
74644;SDS011;63163;55.630;37.594;2022-09-09T04:59:22;4.8;;;1.9;;
74644;SDS011;63163;55.630;37.594;2022-09-09T05:00:23;2.8;;;1.7;;
74644;SDS011;63163;55.630;37.594;2022-09-09T05:01:24;3.0;;;1.7;;
74644;SDS011;63163;55.630;37.594;2022-09-09T05:02:24;2.5;;;1.6;;
74644;SDS011;63163;55.630;37.594;2022-09-09T05:03:25;3.8;;;1.9;;
74644;SDS011;63163;55.630;37.594;2022-09-09T05:04:26;5.3;;;1.9;;
74644;SDS011;63163;55.630;37.594;2022-09-09T05:05:27;3.8;;;1.8;;
74644;SDS011;63163;55.630;37.594;2022-09-09T05:06:28;4.8;;;1.9;;
74644;SDS011;63163;55.630;37.594;2022-09-09T05:07:31;5.3;;;1.9;;
74644;SDS011;63163;55.630;37.594;2022-09-09T05:08:32;2.3;;;1.5;;
74644;SDS011;63163;55.630;37.594;2022-09-09T05:09:32;4.8;;;1.7;;
74644;SDS011;63163;55.630;37.594;2022-09-09T05:10:33;2.3;;;1.5;;
74644;SDS011;63163;55.630;37.594;2022-09-09T05:11:34;4.4;;;1.8;;
74644;SDS011;63163;55.630;37.594;2022-09-09T05:12:36;3.7;;;1.6;;
74644;SDS011;63163;55.630;37.594;2022-09-09T05:13:37;4.1;;;1.7;;
74644;SDS011;63163;55.630;37.594;2022-09-09T05:14:37;3.9;;;1.7;;
74644;SDS011;63163;55.630;37.594;2022-09-09T05:15:38;4.1;;;1.7;;
74644;SDS011;63163;55.630;37.594;2022-09-09T05:16:38;5.0;;;1.9;;
74644;SDS011;63163;55.630;37.594;2022-09-09T05:17:39;4.9;;;1.9;;
74644;SDS011;63163;55.630;37.594;2022-09-09T05:18:40;3.5;;;1.9;;
74644;SDS011;63163;55.630;37.594;2022-09-09T05:19:42;7.7;;;1.7;;
74644;SDS011;63163;55.630;37.594;2022-09-09T05:20:44;2.6;;;1.6;;
74644;SDS011;63163;55.630;37.594;2022-09-09T05:21:44;3.1;;;1.7;;
74644;SDS011;63163;55.630;37.594;2022-09-09T05:22:45;3.3;;;1.6;;
74644;SDS011;63163;55.630;37.594;2022-09-09T05:23:46;3.2;;;1.7;;
74644;SDS011;63163;55.630;37.594;2022-09-09T05:24:46;2.7;;;1.9;;
74644;SDS011;63163;55.630;37.594;2022-09-09T05:25:54;4.7;;;1.9;;
74644;SDS011;63163;55.630;37.594;2022-09-09T05:26:55;3.0;;;1.7;;
74644;SDS011;63163;55.630;37.594;2022-09-09T05:27:58;3.3;;;2.0;;
74644;SDS011;63163;55.630;37.594;2022-09-09T05:28:59;5.8;;;2.2;;
74644;SDS011;63163;55.630;37.594;2022-09-09T05:30:00;4.8;;;2.4;;
74644;SDS011;63163;55.630;37.594;2022-09-09T05:31:02;5.5;;;1.8;;
74644;SDS011;63163;55.630;37.594;2022-09-09T05:32:04;5.3;;;1.9;;
74644;SDS011;63163;55.630;37.594;2022-09-09T05:33:05;4.8;;;2.0;;
74644;SDS011;63163;55.630;37.594;2022-09-09T05:34:06;4.3;;;1.8;;
74644;SDS011;63163;55.630;37.594;2022-09-09T05:35:07;5.4;;;2.0;;
74644;SDS011;63163;55.630;37.594;2022-09-09T05:36:08;2.3;;;1.6;;
74644;SDS011;63163;55.630;37.594;2022-09-09T05:37:10;3.4;;;1.4;;
74644;SDS011;63163;55.630;37.594;2022-09-09T05:38:11;2.9;;;1.5;;
74644;SDS011;63163;55.630;37.594;2022-09-09T05:39:12;3.6;;;1.5;;
74644;SDS011;63163;55.630;37.594;2022-09-09T05:40:13;1.9;;;1.2;;
74644;SDS011;63163;55.630;37.594;2022-09-09T05:41:14;2.3;;;1.2;;
74644;SDS011;63163;55.630;37.594;2022-09-09T05:42:15;3.0;;;1.4;;
74644;SDS011;63163;55.630;37.594;2022-09-09T05:43:16;1.9;;;1.2;;
74644;SDS011;63163;55.630;37.594;2022-09-09T05:44:16;5.2;;;1.3;;
74644;SDS011;63163;55.630;37.594;2022-09-09T05:45:17;4.9;;;1.2;;
74644;SDS011;63163;55.630;37.594;2022-09-09T05:46:18;3.5;;;1.7;;
74644;SDS011;63163;55.630;37.594;2022-09-09T05:47:19;3.8;;;1.7;;
74644;SDS011;63163;55.630;37.594;2022-09-09T05:48:20;5.2;;;1.4;;
74644;SDS011;63163;55.630;37.594;2022-09-09T05:49:20;3.2;;;1.4;;
74644;SDS011;63163;55.630;37.594;2022-09-09T05:50:21;2.8;;;1.4;;
74644;SDS011;63163;55.630;37.594;2022-09-09T05:51:23;3.1;;;1.2;;
74644;SDS011;63163;55.630;37.594;2022-09-09T05:52:24;2.5;;;1.0;;
74644;SDS011;63163;55.630;37.594;2022-09-09T05:53:26;2.8;;;1.1;;
74644;SDS011;63163;55.630;37.594;2022-09-09T05:54:27;5.1;;;1.3;;
74644;SDS011;63163;55.630;37.594;2022-09-09T05:55:27;1.8;;;1.1;;
74644;SDS011;63163;55.630;37.594;2022-09-09T05:56:28;2.2;;;1.2;;
74644;SDS011;63163;55.630;37.594;2022-09-09T05:57:29;1.5;;;1.0;;
74644;SDS011;63163;55.630;37.594;2022-09-09T05:58:30;5.2;;;1.4;;
74644;SDS011;63163;55.630;37.594;2022-09-09T05:59:30;3.3;;;1.3;;
74644;SDS011;63163;55.630;37.594;2022-09-09T06:00:32;2.6;;;1.3;;
74644;SDS011;63163;55.630;37.594;2022-09-09T06:01:33;2.6;;;1.1;;
74644;SDS011;63163;55.630;37.594;2022-09-09T06:02:34;4.6;;;1.2;;
74644;SDS011;63163;55.630;37.594;2022-09-09T06:03:37;2.5;;;1.2;;
74644;SDS011;63163;55.630;37.594;2022-09-09T06:04:38;1.9;;;1.1;;
74644;SDS011;63163;55.630;37.594;2022-09-09T06:05:39;1.3;;;1.0;;
74644;SDS011;63163;55.630;37.594;2022-09-09T06:06:39;2.9;;;1.0;;
74644;SDS011;63163;55.630;37.594;2022-09-09T06:07:40;2.2;;;1.1;;
74644;SDS011;63163;55.630;37.594;2022-09-09T06:08:42;3.2;;;1.1;;
74644;SDS011;63163;55.630;37.594;2022-09-09T06:09:44;3.8;;;1.0;;
74644;SDS011;63163;55.630;37.594;2022-09-09T06:10:44;3.2;;;1.3;;
74644;SDS011;63163;55.630;37.594;2022-09-09T06:11:45;3.0;;;1.1;;
74644;SDS011;63163;55.630;37.594;2022-09-09T06:12:45;2.8;;;1.0;;
74644;SDS011;63163;55.630;37.594;2022-09-09T06:13:46;4.9;;;1.1;;
74644;SDS011;63163;55.630;37.594;2022-09-09T06:14:47;4.0;;;1.3;;
74644;SDS011;63163;55.630;37.594;2022-09-09T06:15:49;2.2;;;0.8;;
74644;SDS011;63163;55.630;37.594;2022-09-09T06:16:50;3.8;;;1.1;;
74644;SDS011;63163;55.630;37.594;2022-09-09T06:17:53;3.6;;;1.0;;
74644;SDS011;63163;55.630;37.594;2022-09-09T06:18:55;3.2;;;0.9;;
74644;SDS011;63163;55.630;37.594;2022-09-09T06:19:56;1.5;;;0.9;;